Latest Coastal Weather Observations for Mackay

IDQ60701

Issued at 2:52 pm EST Wednesday 22 September 2021 (issued every 10 minutes, with the page automatically refreshed every 10 minutes)

About coastal observations | Map of coastal stations | Coastal observations for QLD | Marine services | Other Formats
Station Details ID: 033119 Name: MACKAY M.O Lat: -21.12 Lon: 149.22 Height: 30.26 m
Data from the previous 72 hours. | See also: Recent months at Mackay
Date/Time
EST
Wind Sea
Height
m
Swell Vis
km
Cloud Weather Temp
°C
Press
MSL
hPa
Rain since
9am
mm
Dir  Spd
kts
Gust
kts
Height
m
Period
s
Dir
22/02:30pm SSE 14 22 - - - - - - - 21.5 1018.9 0.0
22/02:00pm SSE 11 19 - - - - - - - 21.5 1019.1 0.0
22/01:30pm SSE 12 20 - - - - - - - 21.4 1019.5 0.0
22/01:14pm SSE 15 25 - - - - - - - 20.9 1019.4 0.0
22/01:00pm SSE 14 21 - - - - - - - 21.4 1019.7 0.0
22/12:46pm SSE 15 25 - - - - - - - 21.1 1019.8 0.0
22/12:30pm SSE 15 24 - - - - - - - 21.3 1019.8 0.0
22/12:00pm SSE 15 24 - - - - - - - 20.8 1020.3 0.0
22/11:30am SSE 15 24 - - - - - - - 20.7 1020.6 0.0
22/11:00am SSE 15 25 - - - - - - - 20.9 1021.0 0.0
22/10:53am SSE 15 25 - - - - - - - 20.6 1021.1 0.0
22/10:30am SSE 13 19 - - - - - - - 20.1 1021.4 0.0
22/10:00am SSE 14 23 - - - - - - - 19.5 1021.7 0.0
22/09:30am SSE 15 25 - - - - - - - 18.4 1021.7 0.0
22/09:00am S 15 25 - - - - - - - 17.5 1021.7 0.0
22/08:30am SSE 15 24 - - - - - - - 16.4 1021.8 0.0
22/08:00am S 15 22 - - - - - - - 15.5 1021.7 0.0
22/07:30am S 12 20 - - - - - - - 14.6 1021.5 0.0
22/07:00am S 11 15 - - - - - - - 13.6 1021.3 0.0
22/06:30am S 9 12 - - - - - - - 12.7 1021.2 0.0
22/06:00am S 12 18 - - - - - - - 13.0 1020.7 0.0
22/05:30am S 14 22 - - - - - - - 13.8 1020.5 0.0
22/05:08am SSE 15 28 - - - - - - - 14.1 1020.2 0.0
22/05:00am S 15 23 - - - - - - - 14.2 1020.1 0.0
22/04:32am SSE 15 25 - - - - - - - 14.7 1019.7 0.0
22/04:30am SSE 15 24 - - - - - - - 14.7 1019.7 0.0
22/04:00am S 16 25 - - - - - - - 15.1 1019.3 0.0
22/03:30am SSE 19 33 - - - - - - - 15.7 1019.2 0.0
22/03:00am SSE 21 32 - - - - - - - 16.3 1018.9 0.0
22/02:32am SSE 22 32 - - - - - - - 16.8 1018.7 0.0
22/02:30am SSE 22 31 - - - - - - - 16.9 1018.7 0.0
22/02:00am SSE 21 31 - - - - - - - 17.5 1018.9 0.0
22/01:30am SSE 21 32 - - - - - - - 17.7 1018.9 0.0
22/01:00am SSE 23 34 - - - - - - - 18.4 1018.7 0.0
22/12:30am SSE 23 35 - - - - - Partly cloudy - 19.0 1018.4 0.0
22/12:00am SSE 21 33 - - - - - - - 19.9 1018.3 0.0
 
Date/Time
EST
Wind Sea
Height
m
Swell Vis
km
Cloud Weather Temp
°C
Press
MSL
hPa
Rain since
9am
mm
Dir  Spd
kts
Gust
kts
Height
m
Period
s
Dir
21/11:30pm SSE 15 26 - - - - - - - 20.5 1018.1 0.0
21/11:23pm SSE 15 25 - - - - - - - 20.5 1018.0 0.0
21/11:00pm SSE 12 19 - - - - - - - 20.5 1017.8 0.0
21/10:30pm S 9 13 - - - - - - - 18.9 1017.3 0.0
21/10:00pm S 8 11 - - - - - - - 19.1 1017.0 0.0
21/09:30pm SW 5 7 - - - - - - - 19.6 1016.4 0.0
21/09:00pm WSW 5 5 - - - - - - - 19.9 1016.0 0.0
21/08:30pm WNW 1 4 - - - - - - - 20.3 1015.4 0.0
21/08:00pm WNW 5 7 - - - - - - - 21.2 1014.7 0.0
21/07:30pm NW 4 5 - - - - - - - 21.0 1014.2 0.0
21/07:00pm NNW 4 5 - - - - - - - 20.9 1013.4 0.0
21/06:30pm N 4 6 - - - - - - - 21.4 1012.7 0.0
21/06:00pm N 4 6 - - - - - - - 22.1 1012.2 0.0
21/05:30pm N 4 7 - - - - - - - 23.6 1011.9 0.0
21/05:00pm N 5 8 - - - - - - - 25.2 1011.6 0.0
21/04:30pm NNE 5 7 - - - - - - - 26.0 1011.4 0.0
21/04:00pm NNE 7 11 - - - - - - - 25.9 1011.1 0.0
21/03:30pm NNE 6 9 - - - - - - - 27.6 1011.1 0.0
21/03:00pm N 6 9 - - - - - - - 27.2 1011.1 0.0
21/02:30pm N 7 11 - - - - - - - 27.7 1011.1 0.0
21/02:00pm NNE 5 9 - - - - - - - 28.6 1011.4 0.0
21/01:30pm NNE 7 9 - - - - - - - 28.2 1011.8 0.0
21/01:00pm NNE 6 10 - - - - - - - 28.6 1012.2 0.0
21/12:30pm NNE 6 9 - - - - - - - 27.9 1012.8 0.0
21/12:00pm E 5 8 - - - - - - - 26.4 1013.4 0.0
21/11:30am NE 5 9 - - - - - - - 27.1 1013.9 0.0
21/11:00am NE 6 11 - - - - - - - 26.5 1014.3 0.0
21/10:30am S 4 9 - - - - - - - 26.2 1014.8 0.0
21/10:00am W 5 9 - - - - - - - 25.3 1015.0 0.0
21/09:30am W 4 6 - - - - - - - 24.3 1015.4 0.0
21/09:00am W 5 7 - - - - - - - 22.9 1015.6 0.0
21/08:30am W 4 6 - - - - - - - 22.1 1015.8 0.0
21/08:00am WSW 5 7 - - - - - - - 20.1 1015.7 0.0
21/07:30am WSW 4 6 - - - - - - - 19.0 1015.5 0.0
21/07:00am WSW 6 8 - - - - - - - 17.2 1015.2 0.0
21/06:30am WSW 8 12 - - - - - - - 16.3 1015.1 0.0
21/06:00am WSW 4 7 - - - - - - - 15.9 1014.5 0.0
21/05:30am W 4 6 - - - - - - - 16.5 1014.2 0.0
21/05:00am SW 7 11 - - - - - - - 16.1 1014.3 0.0
21/04:30am SW 6 8 - - - - - - - 16.1 1014.0 0.0
21/04:00am WSW 6 7 - - - - - - - 16.2 1014.0 0.0
21/03:30am WSW 5 6 - - - - - - - 16.3 1014.1 0.0
21/03:00am WSW 6 8 - - - - - - - 16.8 1014.4 0.0
21/02:30am WSW 6 7 - - - - - - - 16.8 1014.9 0.0
21/02:00am WNW 4 5 - - - - - - - 17.3 1015.0 0.0
21/01:30am WSW 5 7 - - - - - - - 17.1 1015.5 0.0
21/01:00am WSW 4 5 - - - - - - - 17.4 1016.0 0.0
21/12:30am W 4 6 - - - - - - - 17.8 1016.5 0.0
21/12:00am WNW 4 5 - - - - - - - 17.3 1016.8 0.0
 
Date/Time
EST
Wind Sea
Height
m
Swell Vis
km
Cloud Weather Temp
°C
Press
MSL
hPa
Rain since
9am
mm
Dir  Spd
kts
Gust
kts
Height
m
Period
s
Dir
20/11:30pm W 3 4 - - - - - - - 17.8 1017.4 0.0
20/11:00pm SW 2 4 - - - - - - - 18.3 1017.8 0.0
20/10:30pm E 3 6 - - - - - - - 19.6 1018.0 0.0
20/10:00pm NE 5 7 - - - - - - - 19.8 1018.1 0.0
20/09:30pm ENE 5 7 - - - - - - - 20.0 1018.1 0.0
20/09:00pm ENE 5 7 - - - - - - - 20.4 1018.2 0.0
20/08:30pm ENE 5 8 - - - - - - - 20.3 1018.2 0.0
20/08:00pm ENE 6 8 - - - - - - - 20.5 1018.0 0.0
20/07:30pm E 5 7 - - - - - - - 21.1 1017.8 0.0
20/07:00pm E 5 8 - - - - - - - 21.1 1017.4 0.0
20/06:30pm ESE 5 7 - - - - - - - 20.9 1017.3 0.0
20/06:00pm SE 4 7 - - - - - - - 21.1 1017.2 0.0
20/05:30pm SE 5 7 - - - - - - - 21.9 1016.9 0.0
20/05:00pm SE 6 9 - - - - - - - 22.7 1016.7 0.0
20/04:30pm SE 6 8 - - - - - - - 23.1 1016.8 0.0
20/04:00pm SE 6 9 - - - - - - - 23.9 1016.7 0.0
20/03:30pm ESE 5 8 - - - - - - - 23.7 1016.9 0.0
20/03:00pm E 6 9 - - - - - - - 23.7 1017.1 0.0
20/02:30pm ESE 5 9 - - - - - - - 24.0 1017.3 0.0
20/02:00pm ESE 6 8 - - - - - - - 23.8 1017.8 0.0
20/01:30pm ESE 6 9 - - - - - - - 24.0 1018.1 0.0
20/01:00pm ESE 6 9 - - - - - - - 24.2 1018.6 0.0
20/12:30pm ESE 7 11 - - - - - - - 23.8 1019.0 0.0
20/12:00pm SE 7 11 - - - - - - - 24.2 1019.4 0.0
20/11:30am ESE 8 11 - - - - - - - 23.7 1019.6 0.0
20/11:00am ESE 7 11 - - - - - - - 23.9 1020.2 0.0
20/10:30am ESE 7 11 - - - - - Partly cloudy - 23.8 1020.6 0.0
20/10:00am ESE 7 11 - - - - - Partly cloudy - 23.6 1020.8 0.0
20/09:30am ESE 7 12 - - - - - Partly cloudy - 23.6 1020.8 0.0
20/09:00am SSE 5 9 - - - - - Mostly clear - 23.2 1020.9 0.0
20/08:30am S 6 8 - - - - - - - 21.8 1020.8 0.0
20/08:00am SSW 5 7 - - - - - - - 20.6 1020.5 0.0
20/07:30am SSW 6 8 - - - - - - - 18.5 1020.3 0.0
20/07:00am SW 6 8 - - - - - - - 16.7 1019.9 0.0
20/06:30am SW 7 8 - - - - - - - 15.6 1019.8 0.0
20/06:00am SW 7 8 - - - - - - - 15.3 1019.4 0.0
20/05:30am SW 7 8 - - - - - - - 15.5 1019.2 0.0
20/05:00am SW 7 8 - - - - - - - 15.6 1019.0 0.0
20/04:30am SW 7 9 - - - - - - - 15.7 1018.7 0.0
20/04:00am SW 6 9 - - - - - - - 15.9 1018.7 0.0
20/03:30am SW 6 8 - - - - - - - 16.1 1018.9 0.0
20/03:00am WSW 6 8 - - - - - - - 16.4 1019.0 0.0
20/02:30am WSW 6 8 - - - - - - - 16.9 1019.3 0.0
20/02:00am WSW 3 6 - - - - - - - 17.5 1019.4 0.0
20/01:30am SSE 3 6 - - - - - - - 18.6 1019.7 0.0
20/01:00am E 6 9 - - - - - - - 20.8 1020.1 0.0
20/12:30am E 7 11 - - - - - Partly cloudy - 21.0 1020.5 0.0
20/12:00am ESE 6 9 - - - - - Cloudy - 21.3 1020.9 0.0
 
Date/Time
EST
Wind Sea
Height
m
Swell Vis
km
Cloud Weather Temp
°C
Press
MSL
hPa
Rain since
9am
mm
Dir  Spd
kts
Gust
kts
Height
m
Period
s
Dir
19/11:30pm ESE 6 9 - - - - - Partly cloudy - 21.3 1021.1 0.0
19/11:00pm ESE 6 10 - - - - - Partly cloudy - 21.3 1021.3 0.0
19/10:30pm ESE 5 9 - - - - - Partly cloudy - 20.9 1021.5 0.0
19/10:00pm ESE 5 8 - - - - - Partly cloudy - 20.9 1021.5 0.0
19/09:30pm ESE 6 9 - - - - - - - 21.0 1021.5 0.0
19/09:00pm E 7 9 - - - - - Mostly clear - 21.2 1021.6 0.0
19/08:30pm ESE 6 9 - - - - - Partly cloudy - 21.1 1021.3 0.0
19/08:00pm ESE 5 8 - - - - - - - 21.1 1020.9 0.0
19/07:30pm E 6 9 - - - - - - - 21.2 1020.6 0.0
19/07:00pm E 6 9 - - - - - - - 21.1 1020.2 0.0
19/06:30pm ESE 5 7 - - - - - - - 20.9 1020.0 0.0
19/06:00pm SE 5 8 - - - - - Mostly clear - 21.2 1019.8 0.0
19/05:30pm SE 5 8 - - - - - Partly cloudy - 21.9 1019.6 0.0
19/05:00pm SE 5 8 - - - - - Partly cloudy - 22.3 1019.4 0.0
19/04:30pm SE 6 11 - - - - - - - 23.3 1019.3 0.0
19/04:00pm SE 7 12 - - - - - - - 23.3 1019.3 0.0
19/03:30pm SE 7 12 - - - - - - - 23.6 1019.3 0.0
19/03:00pm SE 7 13 - - - - - - - 23.9 1019.5 0.0

Other formats

Comma delimited format used in spreadsheet applications
http://www.bom.gov.au/fwo/IDQ60701/IDQ60701.94367.axf

JavaScript Object Notation format (JSON) in row-major order
http://www.bom.gov.au/fwo/IDQ60701/IDQ60701.94367.json

Data quality

Most of these data are generated automatically and are frequently updated. Quality checks on data are not normally performed. It is possible for incorrect values to appear. Refer to information at About Latest Weather Observations and please check the disclaimer before using these data.